Thunder radar more information blitzortung!


Radar de pluja more information rain snow radar


Visita la nostra xarxa de llocs de meteo:

Template documentation
and downloads

And another site



No particular awareness of the weather is required.    There are no Weather-warnings

Pagina Historial Weather Underground text

Diari Resum Juliol 26, 2017 Unitats:  Imperial    Mètric   Tant
« Previous Dia
SegĂźent Dia »
Diari Setmana Mensual Anual Personalitzada
  Maxima: Minima: Media:
Temperatura: 85.8 °F 63.7 °F 75.2 °F
Punt de rosada: 62.4 °F 49.5 °F 57 °F
Humitat: 76 % 38 % 54 %
Wind Speed: 13.8 mph 0 mph 3.9 mph
RĂ fegues de vent: 13.8 mph - -
Vent:- - SSE
Pression baro: 30 in 29.8 in -
Precipitacions: 0 in    
Historical Graphs
 
 
Dades de taula per Juliol 26, 2017
Temps Temperatura Punt de rosada Pression baro Vent Wind Speed RĂ fegues de vent Humitat Rainfall Rate (Hourly)
00:04 72.1 °F 61.9 °F 29.9 in NNE 2.3 mph 2.3 mph 70 % 0 in
00:05 67.3 °F 51.4 °F 29.8 in NNE 3 mph 3 mph 57 % 0 in
00:09 72.1 °F 61.9 °F 29.9 in NE 2.3 mph 2.3 mph 70 % 0 in
00:14 72 °F 62.1 °F 29.9 in East 2.3 mph 2.3 mph 71 % 0 in
00:15 66.7 °F 50.5 °F 29.8 in SW 1 mph 2 mph 56 % 0 in
00:19 72 °F 62.1 °F 29.9 in NNE 2.9 mph 2.9 mph 71 % 0 in
00:20 72 °F 62.1 °F 29.9 in NNE 2.4 mph 2.4 mph 71 % 0 in
00:25 71.8 °F 61.9 °F 29.9 in NE 3.5 mph 3.5 mph 71 % 0 in
00:30 71.8 °F 61.9 °F 29.9 in NE 4.6 mph 4.6 mph 71 % 0 in
00:35 71.6 °F 61.7 °F 29.9 in NE 5.9 mph 5.9 mph 71 % 0 in
00:40 71.4 °F 61.9 °F 29.9 in NNE 4.6 mph 4.6 mph 72 % 0 in
00:45 71.4 °F 61.9 °F 29.9 in NNE 3.5 mph 3.5 mph 72 % 0 in
00:50 71.2 °F 61.7 °F 29.9 in ENE 3.5 mph 3.5 mph 72 % 0 in
00:55 71.1 °F 61.5 °F 29.9 in NNE 4.6 mph 4.6 mph 72 % 0 in
01:05 65.1 °F 50 °F 29.9 in Calm   1 mph 58 % 0 in
01:15 64.9 °F 49.8 °F 29.9 in Calm     58 % 0 in
01:25 64.8 °F 49.6 °F 29.9 in Calm   1 mph 58 % 0 in
01:35 64.2 °F 49.6 °F 29.9 in WSW 1 mph 2 mph 59 % 0 in
01:45 63.7 °F 49.5 °F 29.9 in WSW 1 mph 1 mph 60 % 0 in
01:55 63.9 °F 49.6 °F 29.9 in SW 1 mph 2 mph 60 % 0 in
02:05 63.7 °F 49.5 °F 29.9 in Calm   1 mph 60 % 0 in
02:15 64 °F 49.8 °F 29.9 in SW 1 mph 2 mph 60 % 0 in
02:25 64 °F 49.8 °F 29.9 in SW 2 mph 2 mph 60 % 0 in
02:35 63.9 °F 50.2 °F 29.9 in SW 1 mph 2 mph 61 % 0 in
02:45 63.9 °F 50.2 °F 29.9 in SW 1 mph 1 mph 61 % 0 in
02:55 64.6 °F 50.7 °F 29.9 in SW 1 mph 1 mph 61 % 0 in
03:05 65.8 °F 51.6 °F 29.9 in WSW 1 mph 2 mph 60 % 0 in
03:15 67.5 °F 52.2 °F 29.9 in Calm   3 mph 58 % 0 in
03:25 68.4 °F 52 °F 29.9 in Calm   2 mph 56 % 0 in
03:35 68.4 °F 52 °F 29.9 in Calm   2 mph 56 % 0 in
03:45 67.3 °F 51.1 °F 29.9 in NE 2 mph 3 mph 56 % 0 in
03:55 67.5 °F 51.3 °F 29.9 in ENE 2 mph 3 mph 56 % 0 in
04:05 67.3 °F 51.4 °F 29.9 in NE 2 mph 4 mph 57 % 0 in
04:15 67.6 °F 51.4 °F 29.9 in NNE 3 mph 4 mph 56 % 0 in
04:25 68.4 °F 51.6 °F 29.9 in NE 2 mph 5 mph 55 % 0 in
04:35 68.7 °F 52 °F 29.9 in ENE 2 mph 2 mph 55 % 0 in
04:45 69.4 °F 52.5 °F 29.9 in SE 2 mph 2 mph 55 % 0 in
04:55 69.4 °F 52.2 °F 29.9 in SSW 1 mph 3 mph 54 % 0 in
05:05 70.2 °F 52.7 °F 29.9 in SSE 1 mph 2 mph 54 % 0 in
05:15 70.9 °F 52.9 °F 29.9 in NNE 1 mph 2 mph 53 % 0 in
05:25 72 °F 54 °F 29.9 in WNW 1 mph 2 mph 53 % 0 in
05:35 72.1 °F 53.4 °F 29.9 in NE 1 mph 4 mph 52 % 0 in
10:34 72.1 °F 53.4 °F 29.9 in NNE 1.2 mph 3.1 mph 52 % 0 in
10:39 73 °F 54.3 °F 29.9 in North 3.6 mph 3.6 mph 52 % 0 in
10:44 72.3 °F 53.8 °F 29.9 in NE 4.6 mph 4.6 mph 52 % 0 in
10:49 73.2 °F 54.5 °F 29.9 in NNE 3.5 mph 3.5 mph 52 % 0 in
10:54 73.6 °F 53.8 °F 29.9 in NNE 3.5 mph 3.5 mph 50 % 0 in
10:59 73.9 °F 54.1 °F 29.9 in NW 2.6 mph   50 % 0 in
11:04 74.3 °F 54.5 °F 29.9 in East 3.5 mph 3.5 mph 50 % 0 in
11:09 74.1 °F 54.3 °F 29.9 in NNE 5.4 mph 5.4 mph 50 % 0 in
11:14 73.4 °F 53.1 °F 29.9 in SSE 3.6 mph 3.6 mph 49 % 0 in
11:19 74.3 °F 53.2 °F 29.9 in South 4.3 mph 4.3 mph 48 % 0 in
11:24 75.9 °F 55.4 °F 29.9 in SSE 4.6 mph 4.6 mph 49 % 0 in
11:29 76.3 °F 55 °F 29.9 in South 3.5 mph 3.5 mph 48 % 0 in
11:34 76.8 °F 56.1 °F 29.9 in NNE 4.6 mph 4.6 mph 49 % 0 in
11:39 77.2 °F 55.9 °F 29.9 in NNW 3.5 mph 3.5 mph 48 % 0 in
11:44 78.4 °F 57 °F 29.9 in SW 4 mph 4 mph 48 % 0 in
11:49 78.6 °F 57.4 °F 29.9 in SSW 4.6 mph 4.6 mph 48 % 0 in
11:54 79 °F 57 °F 29.9 in SW 3.5 mph 3.8 mph 47 % 0 in
11:59 79.2 °F 57.2 °F 29.9 in SW 5.8 mph 5.8 mph 47 % 0 in
12:04 79.2 °F 57.2 °F 29.9 in SW 8.1 mph 8.1 mph 47 % 0 in
12:09 79.3 °F 57.4 °F 29.9 in WSW 8.1 mph 8.1 mph 47 % 0 in
12:14 79.9 °F 57.4 °F 29.9 in SE 3.5 mph 3.5 mph 46 % 0 in
12:19 80.2 °F 58.3 °F 29.9 in East 3.8 mph 3.8 mph 47 % 0 in
12:24 81 °F 57.6 °F 29.9 in SW 4.6 mph 4.6 mph 45 % 0 in
12:29 81.5 °F 58.1 °F 29.9 in SW 3.1 mph 3.1 mph 45 % 0 in
12:34 81.7 °F 57.6 °F 29.9 in WSW 6.4 mph 6.4 mph 44 % 0 in
12:39 81.3 °F 56.7 °F 29.9 in SSE 5.8 mph 5.8 mph 43 % 0 in
12:44 81.9 °F 57.2 °F 29.9 in SSE 4.6 mph 4.6 mph 43 % 0 in
12:49 81.9 °F 57.2 °F 29.9 in ESE 4.6 mph 4.6 mph 43 % 0 in
12:54 82 °F 56.7 °F 29.9 in SSW 3.6 mph 3.6 mph 42 % 0 in
12:59 82.2 °F 57.6 °F 29.9 in SSW 8.1 mph 8.1 mph 43 % 0 in
13:04 83.5 °F 58.6 °F 29.9 in East 3.1 mph 3.1 mph 43 % 0 in
13:05 82.9 °F 57.6 °F 29.9 in SSE 4.6 mph 4.6 mph 42 % 0 in
13:10 82 °F 55.9 °F 29.9 in SE 4.7 mph 4.7 mph 41 % 0 in
13:15 81.9 °F 56.5 °F 29.9 in SW 2.3 mph 2.3 mph 42 % 0 in
13:20 83.5 °F 57.9 °F 29.9 in SW 6.9 mph 6.9 mph 42 % 0 in
13:25 83.5 °F 57.9 °F 29.9 in SW 4.6 mph 4.6 mph 42 % 0 in
13:30 84.2 °F 57.4 °F 29.9 in SSE 4.6 mph 4.6 mph 40 % 0 in
13:37 84.9 °F 57.2 °F 29.9 in SSW 3.1 mph 3.1 mph 39 % 0 in
13:42 84.7 °F 57 °F 29.9 in West 3.5 mph 3.5 mph 39 % 0 in
13:47 84.9 °F 57.9 °F 29.9 in SW 8.5 mph 8.5 mph 40 % 0 in
13:52 84.6 °F 57.6 °F 29.9 in WSW 5.8 mph 5.8 mph 40 % 0 in
13:57 84 °F 57 °F 29.9 in SSW 6.9 mph 6.9 mph 40 % 0 in
14:02 84.9 °F 57.2 °F 29.9 in SE 3.5 mph 3.5 mph 39 % 0 in
14:07 85.5 °F 58.5 °F 29.9 in SSW 8.7 mph 8.7 mph 40 % 0 in
14:08 85.5 °F 58.5 °F 29.9 in WSW 9.2 mph 9.2 mph 40 % 0 in
14:13 85.6 °F 57.7 °F 29.9 in SSW 5.8 mph 5.8 mph 39 % 0 in
14:18 85.6 °F 57.7 °F 29.9 in NNW 3.5 mph 3.5 mph 39 % 0 in
14:19 85.5 °F 57.7 °F 29.9 in WNW 3.5 mph 3.5 mph 39 % 0 in
14:24 85.1 °F 57.4 °F 29.9 in NNE 2.3 mph 2.6 mph 39 % 0 in
14:29 85.8 °F 57.4 °F 29.9 in South 5.8 mph 5.8 mph 38 % 0 in
14:34 85.6 °F 58.5 °F 29.9 in South 5.8 mph 5.8 mph 40 % 0 in
14:39 84.2 °F 57.9 °F 29.9 in SW 9.2 mph 9.2 mph 41 % 0 in
14:44 81.9 °F 57.2 °F 29.9 in SSE 8.1 mph 8.1 mph 43 % 0 in
14:49 81.1 °F 57.7 °F 29.9 in ESE 8.1 mph 8.1 mph 45 % 0 in
14:54 81.5 °F 58.1 °F 29.9 in SSE 8.1 mph 8.1 mph 45 % 0 in
14:59 81.7 °F 58.8 °F 29.9 in SE 5.8 mph 5.9 mph 46 % 0 in
15:04 82.2 °F 59.4 °F 29.9 in SSE 6.9 mph 6.9 mph 46 % 0 in
15:09 81.1 °F 59 °F 29.9 in South 5.8 mph 5.8 mph 47 % 0 in
15:14 81.5 °F 59.4 °F 29.9 in SE 5.8 mph 5.8 mph 47 % 0 in
15:19 80.4 °F 58.8 °F 29.9 in South 8.1 mph 8.1 mph 48 % 0 in
15:24 79.5 °F 58.6 °F 29.9 in East 8.7 mph 8.7 mph 49 % 0 in
15:25 79.5 °F 58.6 °F 29.9 in East 11.5 mph 11.5 mph 49 % 0 in
15:30 78.6 °F 58.5 °F 29.9 in ESE 8.1 mph 8.1 mph 50 % 0 in
15:35 79.7 °F 59.4 °F 29.9 in WSW 2.4 mph 2.4 mph 50 % 0 in
15:40 79 °F 59.4 °F 29.9 in ESE 7.6 mph 7.6 mph 51 % 0 in
15:45 78.3 °F 58.6 °F 29.9 in East 10.4 mph 10.4 mph 51 % 0 in
15:50 77.7 °F 58.6 °F 29.9 in East 5.8 mph 5.8 mph 52 % 0 in
15:55 78.3 °F 59.2 °F 29.9 in SW 8.1 mph 8.1 mph 52 % 0 in
16:00 78.6 °F 59.5 °F 29.9 in East 3.6 mph 3.6 mph 52 % 0 in
16:05 79.3 °F 60.3 °F 29.9 in SW 5.8 mph 5.8 mph 52 % 0 in
16:10 80.1 °F 60.3 °F 29.9 in SSE 3.1 mph 3.3 mph 51 % 0 in
16:15 81 °F 60.6 °F 29.9 in SW 5.8 mph 5.8 mph 50 % 0 in
16:20 82.9 °F 61.9 °F 29.9 in SW 4 mph 4 mph 49 % 0 in
16:25 81.7 °F 60.6 °F 29.9 in SSW 9.2 mph 9.2 mph 49 % 0 in
16:26 81.7 °F 60.6 °F 29.9 in SW 9.2 mph 9.2 mph 49 % 0 in
16:31 81.9 °F 60.8 °F 29.9 in SSE 5.8 mph 5.8 mph 49 % 0 in
16:36 83.1 °F 62.1 °F 29.8 in SSW 4.6 mph 4.6 mph 49 % 0 in
16:41 84 °F 62.2 °F 29.8 in SSE 3.5 mph 3.5 mph 48 % 0 in
16:46 84.6 °F 62.1 °F 29.8 in WSW 3.6 mph 3.6 mph 47 % 0 in
16:51 84.7 °F 61.7 °F 29.9 in West 5.8 mph 5.8 mph 46 % 0 in
16:56 85.6 °F 62.4 °F 29.9 in SE 3.5 mph 3.5 mph 46 % 0 in
17:01 83.3 °F 61 °F 29.9 in NW 9.2 mph 9.2 mph 47 % 0 in
17:06 83.7 °F 61.3 °F 29.9 in South 4.6 mph 4.6 mph 47 % 0 in
17:11 82.2 °F 60.1 °F 29.9 in NNE 5.9 mph 5.9 mph 47 % 0 in
17:16 82.6 °F 61 °F 29.9 in SW 12.7 mph 12.7 mph 48 % 0 in
17:21 82.8 °F 61.2 °F 29.9 in ESE 11.5 mph 11.5 mph 48 % 0 in
17:26 80.8 °F 59.7 °F 29.9 in East 6.9 mph 6.9 mph 49 % 0 in
17:31 80.2 °F 60.4 °F 29.9 in NNE 13.8 mph 13.8 mph 51 % 0 in
17:36 79.5 °F 59.7 °F 29.9 in ESE 9.2 mph 9.7 mph 51 % 0 in
17:41 79.5 °F 60.4 °F 29.9 in NNE 12.7 mph 12.7 mph 52 % 0 in
17:46 79 °F 59.9 °F 29.9 in ESE 6.9 mph 7.1 mph 52 % 0 in
17:51 78.8 °F 59.7 °F 29.9 in NNW 8.1 mph 8.1 mph 52 % 0 in
17:56 79.3 °F 60.6 °F 29.9 in ESE 10.4 mph 10.4 mph 53 % 0 in
18:01 79.2 °F 60.6 °F 29.9 in East 12.7 mph 12.7 mph 53 % 0 in
18:06 78.6 °F 60.1 °F 29.9 in East 9.2 mph 9.2 mph 53 % 0 in
18:11 78.6 °F 60.1 °F 29.9 in ENE 6.9 mph 6.9 mph 53 % 0 in
18:16 79 °F 60.4 °F 29.9 in ESE 9.2 mph 9.2 mph 53 % 0 in
18:21 78.4 °F 59.9 °F 29.9 in ESE 10 mph 10 mph 53 % 0 in
18:26 78.1 °F 59.5 °F 29.9 in SE 8.7 mph 8.7 mph 53 % 0 in
18:31 78.3 °F 59.7 °F 29.9 in ENE 9.2 mph 9.2 mph 53 % 0 in
18:36 78.3 °F 59.7 °F 29.9 in NNE 6.4 mph 6.4 mph 53 % 0 in
18:41 78.4 °F 59.4 °F 29.9 in ESE 5.8 mph 5.8 mph 52 % 0 in
18:46 78.3 °F 59.2 °F 29.9 in ESE 8.1 mph 8.1 mph 52 % 0 in
18:51 78.4 °F 59.4 °F 29.9 in ESE 5.8 mph 5.8 mph 52 % 0 in
18:56 78.4 °F 58.8 °F 29.9 in ESE 6.9 mph 6.9 mph 51 % 0 in
19:01 78.1 °F 58.5 °F 29.9 in ENE 5.8 mph 5.8 mph 51 % 0 in
19:06 77.7 °F 57.6 °F 29.9 in East 6.9 mph 6.9 mph 50 % 0 in
19:11 77.9 °F 57.7 °F 29.9 in ENE 5.8 mph 5.9 mph 50 % 0 in
19:15 70.9 °F 57.7 °F 29.9 in Calm     63 % 0 in
19:16 78.1 °F 57.9 °F 29.9 in SE 4.6 mph 4.6 mph 50 % 0 in
19:21 77.9 °F 57.7 °F 29.8 in East 5.8 mph 5.8 mph 50 % 0 in
19:25 70.3 °F 57.6 °F 29.9 in NE 1 mph 1 mph 64 % 0 in
19:26 77.7 °F 57.6 °F 29.8 in ESE 7.8 mph 7.8 mph 50 % 0 in
19:31 77.5 °F 57.4 °F 29.8 in ESE 5.9 mph 5.9 mph 50 % 0 in
19:35 70 °F 57.7 °F 29.9 in Calm     65 % 0 in
19:36 77.5 °F 57.4 °F 29.9 in East 8.1 mph 8.1 mph 50 % 0 in
19:41 77.4 °F 57.7 °F 29.9 in ENE 9.2 mph 9.2 mph 51 % 0 in
19:45 70 °F 57.7 °F 29.9 in Calm     65 % 0 in
19:46 77.2 °F 57.7 °F 29.9 in ENE 5.8 mph 5.8 mph 51 % 0 in
19:51 77 °F 57.6 °F 29.9 in ESE 10.4 mph 10.4 mph 51 % 0 in
19:55 69.8 °F 57.9 °F 29.9 in Calm     66 % 0 in
19:56 77 °F 57.6 °F 29.9 in ESE 5.8 mph 5.8 mph 51 % 0 in
20:01 76.8 °F 57.9 °F 29.9 in East 6 mph 6 mph 52 % 0 in
20:05 69.6 °F 57.7 °F 29.9 in Calm     66 % 0 in
20:06 76.5 °F 57.6 °F 29.9 in ESE 9.2 mph 9.2 mph 52 % 0 in
20:11 76.5 °F 57.6 °F 29.9 in East 5.4 mph 5.4 mph 52 % 0 in
20:15 69.6 °F 58.3 °F 29.9 in Calm     67 % 0 in
20:16 76.5 °F 57.6 °F 29.9 in ENE 5.8 mph 5.8 mph 52 % 0 in
20:21 76.3 °F 57.4 °F 29.8 in ENE 6 mph 6 mph 52 % 0 in
20:25 69.6 °F 58.3 °F 29.9 in Calm     67 % 0 in
20:26 76.1 °F 57.2 °F 29.8 in ESE 5.8 mph 5.8 mph 52 % 0 in
20:31 75.9 °F 57 °F 29.8 in ESE 5.8 mph 5.8 mph 52 % 0 in
20:35 69.4 °F 57.9 °F 29.9 in Calm   2 mph 67 % 0 in
20:36 75.9 °F 57 °F 29.9 in East 3.5 mph 3.5 mph 52 % 0 in
20:41 75.7 °F 56.8 °F 29.9 in ESE 4.6 mph 4.6 mph 52 % 0 in
20:45 69.4 °F 57.9 °F 29.9 in Calm   2 mph 67 % 0 in
20:46 75.6 °F 56.7 °F 29.9 in SE 4.6 mph 4.6 mph 52 % 0 in
20:51 75.6 °F 56.7 °F 29.9 in East 3.5 mph 3.5 mph 52 % 0 in
20:55 69.3 °F 57.7 °F 29.9 in Calm     67 % 0 in
20:56 75.4 °F 56.5 °F 29.9 in ENE 4.6 mph 4.6 mph 52 % 0 in
21:01 75.2 °F 56.5 °F 29.9 in SE 3.8 mph 3.8 mph 52 % 0 in
21:05 68.7 °F 57.7 °F 29.9 in Calm     68 % 0 in
21:06 75.2 °F 56.5 °F 29.9 in Calm     52 % 0 in
21:11 75 °F 56.1 °F 29.9 in WSW 2.3 mph 2.6 mph 52 % 0 in
21:15 68.4 °F 57.7 °F 29.9 in Calm   2 mph 69 % 0 in
21:16 75 °F 56.7 °F 29.9 in SW 2.4 mph 2.4 mph 53 % 0 in
21:21 74.8 °F 56.7 °F 29.9 in Calm     53 % 0 in
21:25 68 °F 57.4 °F 29.9 in Calm   2 mph 69 % 0 in
21:26 74.8 °F 56.7 °F 29.9 in SW 2.3 mph 2.3 mph 53 % 0 in
21:31 74.7 °F 56.5 °F 29.9 in Calm     53 % 0 in
21:35 67.5 °F 57.7 °F 29.9 in Calm   2 mph 71 % 0 in
21:36 74.5 °F 56.1 °F 29.9 in West 1.2 mph   53 % 0 in
21:41 74.3 °F 56.1 °F 29.9 in East 1.6 mph   53 % 0 in
21:45 67.1 °F 57 °F 29.9 in Calm     70 % 0 in
21:46 73.9 °F 55.8 °F 29.9 in NE 1.2 mph   53 % 0 in
21:51 73.8 °F 55.6 °F 29.9 in NE 1.6 mph 1.6 mph 53 % 0 in
21:55 66.9 °F 57.2 °F 29.9 in Calm     71 % 0 in
21:56 73.8 °F 55.6 °F 29.9 in NNE 1.2 mph 1.2 mph 53 % 0 in
22:01 73.6 °F 55.4 °F 29.9 in NNE 2.3 mph 2.3 mph 53 % 0 in
22:05 66.9 °F 57.2 °F 29.9 in SW 1 mph 1 mph 71 % 0 in
22:06 73.6 °F 55.4 °F 29.9 in Calm     53 % 0 in
22:11 73.4 °F 54.7 °F 29.9 in SE 2.3 mph 2.3 mph 52 % 0 in
22:15 66.7 °F 57 °F 29.9 in SW 1 mph 2 mph 71 % 0 in
22:16 73.2 °F 55 °F 29.9 in SW 1.4 mph   53 % 0 in
22:21 73.2 °F 55 °F 29.9 in WSW 1.2 mph   53 % 0 in
22:25 66.6 °F 57.4 °F 30 in Calm   1 mph 72 % 0 in
22:26 73 °F 54.9 °F 29.9 in Calm     53 % 0 in
22:31 72.9 °F 54.7 °F 29.9 in NW 1.2 mph 1.2 mph 53 % 0 in
22:35 66.4 °F 57 °F 29.9 in Calm     72 % 0 in
22:36 72.9 °F 55.2 °F 29.9 in North 1.2 mph 1.2 mph 54 % 0 in
22:41 72.9 °F 55.8 °F 29.9 in Calm     55 % 0 in
22:45 66.4 °F 57.6 °F 29.9 in SW 1 mph 1 mph 73 % 0 in
22:46 72.7 °F 56.1 °F 29.9 in WSW 1.4 mph 1.4 mph 56 % 0 in
22:51 72.7 °F 56.1 °F 29.9 in WSW 2.3 mph 2.3 mph 56 % 0 in
22:55 66.4 °F 57.6 °F 29.9 in Calm     73 % 0 in
22:56 72.5 °F 56.5 °F 29.9 in WSW 2 mph 2 mph 57 % 0 in
23:01 72.5 °F 56.5 °F 29.9 in WSW 2.3 mph 2.3 mph 57 % 0 in
23:05 66.4 °F 57.6 °F 29.9 in Calm     73 % 0 in
23:06 72.3 °F 56.7 °F 29.9 in WNW 1.2 mph 1.2 mph 58 % 0 in
23:11 72.1 °F 57 °F 29.9 in West 1.2 mph   59 % 0 in
23:15 66.2 °F 57.4 °F 29.9 in Calm     73 % 0 in
23:16 72 °F 56.8 °F 29.9 in SW 1.2 mph 1.2 mph 59 % 0 in
23:21 71.8 °F 57 °F 29.9 in Calm     60 % 0 in
23:25 66.2 °F 57.7 °F 29.9 in SW 1 mph 2 mph 74 % 0 in
23:26 71.8 °F 57 °F 29.9 in WSW 2.3 mph 2.3 mph 60 % 0 in
23:31 71.8 °F 57 °F 29.9 in West 3.1 mph 3.1 mph 60 % 0 in
23:35 66 °F 57.9 °F 29.9 in Calm   2 mph 75 % 0 in
23:36 71.8 °F 57.6 °F 29.9 in WSW 1.4 mph 1.4 mph 61 % 0 in
23:41 71.6 °F 57.4 °F 29.9 in West 1.2 mph   61 % 0 in
23:45 66 °F 57.9 °F 29.9 in Calm   1 mph 75 % 0 in
23:46 71.4 °F 57.7 °F 29.9 in Calm     62 % 0 in
23:51 71.4 °F 57.7 °F 29.9 in Calm     62 % 0 in
23:55 66 °F 58.3 °F 29.9 in Calm   1 mph 76 % 0 in
23:56 71.2 °F 57.9 °F 29.9 in Calm     63 % 0 in
Meteo Sesrovires
Elogis d' Weather Underground - 3.75 mb

Guio original per  Jim McMurry - jmcmurry@mwt.net Adaptat per a la plantilla per  Wim van der Kuil - Leuven-Template.eu

Trobareu la nostra informacio del temps tambe a:

Weather Underground

AWEKAS